North Madison, Indiana
Current Conditions -  °F | °C
As of 10:44 PM on Monday 20 Oct 2014 (Local Time) from KLOU Reporting Station
Haze Haze  
Wind Chill: 55°   Ceiling: Unl
Heat Index: 55°   Visibility: 1.7mi
Dew Point: 54°   Wind: 0mph
Humidity: 96%   Direction: NA
Pressure: 29.94"   Gusts: NA
Location:  38.7969°N, 85.4186°W
Report Text: KLOU 210244Z 00000KT 1 3/4SM BR FEW075 13/12 A2994 RMK AO2 T01280122
Loading
Personal Weather Stations






























Interactive Weather Map
Tropical Storm Tracking
New forecast layout! Learn more

10-Day Weather Forecast

Advertisements
Track Severe Weather on mobile